sensor_id;sensor_type;location;lat;lon;timestamp;pressure;altitude;pressure_sealevel;temperature;humidity
63339;BME280;47485;51.378;-1.342;2022-11-20T00:01:56;99686.22;;;7.95;26.58
63339;BME280;47485;51.378;-1.342;2022-11-20T00:04:27;99683.41;;;7.46;26.56
63339;BME280;47485;51.378;-1.342;2022-11-20T00:06:55;99674.37;;;6.54;26.51
63339;BME280;47485;51.378;-1.342;2022-11-20T00:09:23;99667.25;;;7.54;26.58
63339;BME280;47485;51.378;-1.342;2022-11-20T00:11:51;99670.76;;;7.95;26.32
63339;BME280;47485;51.378;-1.342;2022-11-20T00:14:18;99671.27;;;7.33;26.31
63339;BME280;47485;51.378;-1.342;2022-11-20T00:16:46;99673.96;;;5.74;27.37
63339;BME280;47485;51.378;-1.342;2022-11-20T00:19:12;99673.40;;;6.48;27.21
63339;BME280;47485;51.378;-1.342;2022-11-20T00:21:39;99674.75;;;8.70;26.44
63339;BME280;47485;51.378;-1.342;2022-11-20T00:24:08;99672.79;;;7.33;26.72
63339;BME280;47485;51.378;-1.342;2022-11-20T00:26:36;99674.35;;;7.84;26.42
63339;BME280;47485;51.378;-1.342;2022-11-20T00:29:02;99675.43;;;7.68;26.45
63339;BME280;47485;51.378;-1.342;2022-11-20T00:31:30;99673.12;;;7.90;26.73
63339;BME280;47485;51.378;-1.342;2022-11-20T00:33:57;99666.41;;;8.63;26.23
63339;BME280;47485;51.378;-1.342;2022-11-20T00:36:25;99663.39;;;7.42;26.36
63339;BME280;47485;51.378;-1.342;2022-11-20T00:38:52;99662.00;;;7.74;26.86
63339;BME280;47485;51.378;-1.342;2022-11-20T00:41:20;99655.96;;;5.76;28.64
63339;BME280;47485;51.378;-1.342;2022-11-20T00:43:48;99649.54;;;7.64;27.25
63339;BME280;47485;51.378;-1.342;2022-11-20T00:46:16;99649.84;;;7.39;27.65
63339;BME280;47485;51.378;-1.342;2022-11-20T00:48:45;99645.00;;;8.22;27.10
63339;BME280;47485;51.378;-1.342;2022-11-20T00:51:14;99641.50;;;6.81;27.72
63339;BME280;47485;51.378;-1.342;2022-11-20T00:53:41;99637.51;;;6.55;27.34
63339;BME280;47485;51.378;-1.342;2022-11-20T00:56:10;99636.08;;;7.06;27.28
63339;BME280;47485;51.378;-1.342;2022-11-20T00:58:38;99639.21;;;7.49;26.87
63339;BME280;47485;51.378;-1.342;2022-11-20T01:01:08;99639.25;;;7.41;26.98
63339;BME280;47485;51.378;-1.342;2022-11-20T01:03:36;99637.08;;;6.56;27.33
63339;BME280;47485;51.378;-1.342;2022-11-20T01:06:05;99635.13;;;6.55;27.77
63339;BME280;47485;51.378;-1.342;2022-11-20T01:08:34;99631.09;;;8.47;27.94
63339;BME280;47485;51.378;-1.342;2022-11-20T01:11:02;99628.65;;;6.88;27.74
63339;BME280;47485;51.378;-1.342;2022-11-20T01:13:30;99622.46;;;7.81;27.35
63339;BME280;47485;51.378;-1.342;2022-11-20T01:16:02;99622.22;;;5.81;28.27
63339;BME280;47485;51.378;-1.342;2022-11-20T01:18:28;99613.10;;;7.82;27.97
63339;BME280;47485;51.378;-1.342;2022-11-20T01:20:55;99610.98;;;7.86;27.84
63339;BME280;47485;51.378;-1.342;2022-11-20T01:23:21;99609.09;;;6.54;27.88
63339;BME280;47485;51.378;-1.342;2022-11-20T01:25:48;99603.06;;;7.99;27.26
63339;BME280;47485;51.378;-1.342;2022-11-20T01:28:15;99597.42;;;8.01;27.26
63339;BME280;47485;51.378;-1.342;2022-11-20T01:30:42;99590.70;;;9.00;27.28
63339;BME280;47485;51.378;-1.342;2022-11-20T01:33:09;99586.67;;;9.14;26.92
63339;BME280;47485;51.378;-1.342;2022-11-20T01:35:36;99584.37;;;8.23;27.45
63339;BME280;47485;51.378;-1.342;2022-11-20T01:38:03;99577.08;;;6.68;27.65
63339;BME280;47485;51.378;-1.342;2022-11-20T01:40:29;99573.74;;;8.15;27.52
63339;BME280;47485;51.378;-1.342;2022-11-20T01:43:11;99570.66;;;6.82;28.16
63339;BME280;47485;51.378;-1.342;2022-11-20T01:45:56;99568.46;;;8.38;27.86
63339;BME280;47485;51.378;-1.342;2022-11-20T01:48:24;99564.69;;;8.42;27.42
63339;BME280;47485;51.378;-1.342;2022-11-20T01:50:52;99555.08;;;7.11;27.75
63339;BME280;47485;51.378;-1.342;2022-11-20T01:53:22;99550.42;;;7.66;27.73
63339;BME280;47485;51.378;-1.342;2022-11-20T01:55:53;99544.88;;;8.33;27.60
63339;BME280;47485;51.378;-1.342;2022-11-20T01:58:24;99541.86;;;8.04;27.86
63339;BME280;47485;51.378;-1.342;2022-11-20T02:00:52;99539.95;;;9.04;27.56
63339;BME280;47485;51.378;-1.342;2022-11-20T02:03:20;99541.48;;;8.02;27.12
63339;BME280;47485;51.378;-1.342;2022-11-20T02:05:51;99544.33;;;7.53;27.83
63339;BME280;47485;51.378;-1.342;2022-11-20T02:08:23;99540.31;;;7.68;27.71
63339;BME280;47485;51.378;-1.342;2022-11-20T02:10:50;99535.85;;;7.94;27.55
63339;BME280;47485;51.378;-1.342;2022-11-20T02:13:17;99535.19;;;8.42;27.62
63339;BME280;47485;51.378;-1.342;2022-11-20T02:15:45;99531.61;;;8.37;27.69
63339;BME280;47485;51.378;-1.342;2022-11-20T02:18:14;99522.67;;;6.52;27.91
63339;BME280;47485;51.378;-1.342;2022-11-20T02:20:45;99521.38;;;7.80;27.75
63339;BME280;47485;51.378;-1.342;2022-11-20T02:23:18;99509.07;;;7.19;28.24
63339;BME280;47485;51.378;-1.342;2022-11-20T02:25:49;99502.22;;;6.70;28.16
63339;BME280;47485;51.378;-1.342;2022-11-20T02:28:18;99509.37;;;3.47;31.49
63339;BME280;47485;51.378;-1.342;2022-11-20T02:30:45;99507.45;;;6.62;29.81
63339;BME280;47485;51.378;-1.342;2022-11-20T02:33:12;99502.96;;;7.18;29.82
63339;BME280;47485;51.378;-1.342;2022-11-20T02:35:43;99502.27;;;5.07;31.66
63339;BME280;47485;51.378;-1.342;2022-11-20T02:38:10;99501.83;;;1.64;35.40
63339;BME280;47485;51.378;-1.342;2022-11-20T02:40:37;99490.93;;;3.38;34.33
63339;BME280;47485;51.378;-1.342;2022-11-20T02:43:04;99483.74;;;5.60;33.32
63339;BME280;47485;51.378;-1.342;2022-11-20T02:45:31;99481.98;;;4.55;32.74
63339;BME280;47485;51.378;-1.342;2022-11-20T02:47:57;99473.19;;;3.41;34.24
63339;BME280;47485;51.378;-1.342;2022-11-20T02:50:24;99468.94;;;4.08;33.80
63339;BME280;47485;51.378;-1.342;2022-11-20T02:52:51;99468.77;;;4.82;33.39
63339;BME280;47485;51.378;-1.342;2022-11-20T02:55:18;99464.88;;;4.27;33.45
63339;BME280;47485;51.378;-1.342;2022-11-20T02:57:46;99460.05;;;3.69;33.07
63339;BME280;47485;51.378;-1.342;2022-11-20T03:00:14;99450.60;;;5.48;32.14
63339;BME280;47485;51.378;-1.342;2022-11-20T03:02:40;99449.86;;;4.60;32.92
63339;BME280;47485;51.378;-1.342;2022-11-20T03:05:08;99442.32;;;6.78;31.19
63339;BME280;47485;51.378;-1.342;2022-11-20T03:07:35;99436.81;;;6.49;30.98
63339;BME280;47485;51.378;-1.342;2022-11-20T03:10:04;99432.05;;;6.72;30.83
63339;BME280;47485;51.378;-1.342;2022-11-20T03:12:32;99428.55;;;5.95;31.44
63339;BME280;47485;51.378;-1.342;2022-11-20T03:14:59;99422.77;;;6.91;31.32
63339;BME280;47485;51.378;-1.342;2022-11-20T03:17:25;99418.74;;;5.47;32.06
63339;BME280;47485;51.378;-1.342;2022-11-20T03:19:52;99413.89;;;4.33;33.76
63339;BME280;47485;51.378;-1.342;2022-11-20T03:22:19;99409.82;;;3.01;34.34
63339;BME280;47485;51.378;-1.342;2022-11-20T03:24:47;99407.97;;;4.44;35.79
63339;BME280;47485;51.378;-1.342;2022-11-20T03:27:13;99403.23;;;6.91;33.34
63339;BME280;47485;51.378;-1.342;2022-11-20T03:29:40;99403.66;;;4.73;36.62
63339;BME280;47485;51.378;-1.342;2022-11-20T03:32:07;99400.65;;;5.25;35.49
63339;BME280;47485;51.378;-1.342;2022-11-20T03:34:34;99398.55;;;2.59;37.45
63339;BME280;47485;51.378;-1.342;2022-11-20T03:37:01;99395.21;;;3.39;37.88
63339;BME280;47485;51.378;-1.342;2022-11-20T03:39:28;99383.70;;;3.69;36.24
63339;BME280;47485;51.378;-1.342;2022-11-20T03:41:54;99376.73;;;3.24;37.48
63339;BME280;47485;51.378;-1.342;2022-11-20T03:44:21;99368.44;;;4.70;35.13
63339;BME280;47485;51.378;-1.342;2022-11-20T03:46:49;99365.58;;;4.62;36.28
63339;BME280;47485;51.378;-1.342;2022-11-20T03:49:16;99362.56;;;2.53;37.49
63339;BME280;47485;51.378;-1.342;2022-11-20T03:51:43;99360.22;;;4.05;36.92
63339;BME280;47485;51.378;-1.342;2022-11-20T03:54:09;99360.50;;;5.38;35.87
63339;BME280;47485;51.378;-1.342;2022-11-20T03:56:37;99360.09;;;3.69;36.48
63339;BME280;47485;51.378;-1.342;2022-11-20T03:59:05;99355.28;;;2.31;37.62
63339;BME280;47485;51.378;-1.342;2022-11-20T04:01:35;99354.16;;;6.44;34.93
63339;BME280;47485;51.378;-1.342;2022-11-20T04:04:02;99346.26;;;7.71;33.22
63339;BME280;47485;51.378;-1.342;2022-11-20T04:06:30;99347.06;;;5.82;35.83
63339;BME280;47485;51.378;-1.342;2022-11-20T04:09:00;99344.26;;;6.74;34.88
63339;BME280;47485;51.378;-1.342;2022-11-20T04:11:29;99341.56;;;3.68;37.81
63339;BME280;47485;51.378;-1.342;2022-11-20T04:13:57;99335.30;;;6.66;34.72
63339;BME280;47485;51.378;-1.342;2022-11-20T04:16:25;99330.72;;;5.06;36.87
63339;BME280;47485;51.378;-1.342;2022-11-20T04:18:53;99337.10;;;3.28;36.96
63339;BME280;47485;51.378;-1.342;2022-11-20T04:21:21;99330.67;;;5.48;37.00
63339;BME280;47485;51.378;-1.342;2022-11-20T04:23:48;99318.93;;;4.67;37.34
63339;BME280;47485;51.378;-1.342;2022-11-20T04:26:15;99315.25;;;5.74;36.61
63339;BME280;47485;51.378;-1.342;2022-11-20T04:28:42;99320.47;;;7.17;35.27
63339;BME280;47485;51.378;-1.342;2022-11-20T04:31:11;99323.00;;;6.77;36.00
63339;BME280;47485;51.378;-1.342;2022-11-20T04:33:38;99323.87;;;4.98;37.86
63339;BME280;47485;51.378;-1.342;2022-11-20T04:36:06;99315.61;;;4.49;37.51
63339;BME280;47485;51.378;-1.342;2022-11-20T04:38:34;99305.95;;;6.63;37.14
63339;BME280;47485;51.378;-1.342;2022-11-20T04:41:04;99296.25;;;4.86;39.14
63339;BME280;47485;51.378;-1.342;2022-11-20T04:43:32;99288.52;;;4.11;39.46
63339;BME280;47485;51.378;-1.342;2022-11-20T04:46:00;99282.46;;;6.82;36.01
63339;BME280;47485;51.378;-1.342;2022-11-20T04:48:28;99286.58;;;6.30;37.41
63339;BME280;47485;51.378;-1.342;2022-11-20T04:50:56;99286.38;;;7.83;35.00
63339;BME280;47485;51.378;-1.342;2022-11-20T04:53:23;99294.24;;;4.74;39.96
63339;BME280;47485;51.378;-1.342;2022-11-20T04:55:50;99300.57;;;6.30;38.10
63339;BME280;47485;51.378;-1.342;2022-11-20T04:58:17;99299.74;;;8.55;35.52
63339;BME280;47485;51.378;-1.342;2022-11-20T05:00:44;99297.41;;;8.40;34.56
63339;BME280;47485;51.378;-1.342;2022-11-20T05:03:11;99288.87;;;8.43;35.42
63339;BME280;47485;51.378;-1.342;2022-11-20T05:05:38;99286.23;;;7.22;34.53
63339;BME280;47485;51.378;-1.342;2022-11-20T05:08:05;99284.04;;;8.99;32.94
63339;BME280;47485;51.378;-1.342;2022-11-20T05:10:32;99291.49;;;9.01;32.21
63339;BME280;47485;51.378;-1.342;2022-11-20T05:12:58;99289.91;;;7.84;34.13
63339;BME280;47485;51.378;-1.342;2022-11-20T05:15:25;99286.44;;;7.16;33.40
63339;BME280;47485;51.378;-1.342;2022-11-20T05:17:52;99279.25;;;10.48;31.71
63339;BME280;47485;51.378;-1.342;2022-11-20T05:20:19;99276.33;;;12.39;29.80
63339;BME280;47485;51.378;-1.342;2022-11-20T05:22:46;99276.82;;;9.43;31.64
63339;BME280;47485;51.378;-1.342;2022-11-20T05:25:13;99277.63;;;11.32;30.28
63339;BME280;47485;51.378;-1.342;2022-11-20T05:27:41;99288.81;;;12.68;29.77
63339;BME280;47485;51.378;-1.342;2022-11-20T05:30:09;99305.56;;;11.05;31.55
63339;BME280;47485;51.378;-1.342;2022-11-20T05:32:36;99306.52;;;4.83;37.94
63339;BME280;47485;51.378;-1.342;2022-11-20T05:35:03;99291.73;;;5.14;37.24
63339;BME280;47485;51.378;-1.342;2022-11-20T05:37:31;99290.93;;;7.53;35.43
63339;BME280;47485;51.378;-1.342;2022-11-20T05:39:58;99289.69;;;9.60;32.75
63339;BME280;47485;51.378;-1.342;2022-11-20T05:42:24;99294.18;;;10.16;32.26
63339;BME280;47485;51.378;-1.342;2022-11-20T05:44:51;99296.07;;;8.21;32.92
63339;BME280;47485;51.378;-1.342;2022-11-20T05:47:18;99296.02;;;11.24;30.30
63339;BME280;47485;51.378;-1.342;2022-11-20T05:49:46;99297.54;;;11.30;30.07
63339;BME280;47485;51.378;-1.342;2022-11-20T05:52:13;99300.42;;;11.69;30.41
63339;BME280;47485;51.378;-1.342;2022-11-20T05:54:40;99293.79;;;10.19;30.99
63339;BME280;47485;51.378;-1.342;2022-11-20T05:57:06;99286.84;;;10.25;31.07
63339;BME280;47485;51.378;-1.342;2022-11-20T05:59:33;99291.15;;;9.18;31.71
63339;BME280;47485;51.378;-1.342;2022-11-20T06:02:00;99301.63;;;11.41;30.07
63339;BME280;47485;51.378;-1.342;2022-11-20T06:04:27;99310.28;;;11.15;30.09
63339;BME280;47485;51.378;-1.342;2022-11-20T06:06:53;99316.59;;;10.11;30.21
63339;BME280;47485;51.378;-1.342;2022-11-20T06:09:21;99318.71;;;10.41;30.94
63339;BME280;47485;51.378;-1.342;2022-11-20T06:11:48;99315.77;;;10.05;31.60
63339;BME280;47485;51.378;-1.342;2022-11-20T06:14:15;99315.29;;;9.53;30.84
63339;BME280;47485;51.378;-1.342;2022-11-20T06:16:41;99312.58;;;10.04;30.38
63339;BME280;47485;51.378;-1.342;2022-11-20T06:19:08;99305.31;;;11.56;29.22
63339;BME280;47485;51.378;-1.342;2022-11-20T06:21:34;99298.86;;;10.56;29.39
63339;BME280;47485;51.378;-1.342;2022-11-20T06:24:01;99297.91;;;11.73;30.04
63339;BME280;47485;51.378;-1.342;2022-11-20T06:26:28;99294.72;;;10.92;32.61
63339;BME280;47485;51.378;-1.342;2022-11-20T06:28:57;99299.41;;;9.51;34.93
63339;BME280;47485;51.378;-1.342;2022-11-20T06:31:25;99306.24;;;7.51;36.49
63339;BME280;47485;51.378;-1.342;2022-11-20T06:33:52;99306.69;;;7.47;37.66
63339;BME280;47485;51.378;-1.342;2022-11-20T06:36:21;99299.97;;;8.21;38.63
63339;BME280;47485;51.378;-1.342;2022-11-20T06:38:49;99294.75;;;6.84;39.00
63339;BME280;47485;51.378;-1.342;2022-11-20T06:41:18;99296.90;;;5.98;41.10
63339;BME280;47485;51.378;-1.342;2022-11-20T06:43:47;99300.46;;;5.77;42.67
63339;BME280;47485;51.378;-1.342;2022-11-20T06:46:17;99306.43;;;5.28;42.68
63339;BME280;47485;51.378;-1.342;2022-11-20T06:48:46;99307.92;;;6.05;43.67
63339;BME280;47485;51.378;-1.342;2022-11-20T06:51:13;99309.13;;;6.71;42.84
63339;BME280;47485;51.378;-1.342;2022-11-20T06:53:40;99313.20;;;6.00;42.91
63339;BME280;47485;51.378;-1.342;2022-11-20T06:56:07;99315.63;;;6.49;42.16
63339;BME280;47485;51.378;-1.342;2022-11-20T06:58:34;99319.12;;;5.92;42.87
63339;BME280;47485;51.378;-1.342;2022-11-20T07:01:04;99316.46;;;5.83;42.87
63339;BME280;47485;51.378;-1.342;2022-11-20T07:03:31;99319.95;;;5.29;43.50
63339;BME280;47485;51.378;-1.342;2022-11-20T07:05:58;99326.75;;;4.64;44.28
63339;BME280;47485;51.378;-1.342;2022-11-20T07:08:26;99328.52;;;5.78;43.41
63339;BME280;47485;51.378;-1.342;2022-11-20T07:10:57;99325.69;;;5.09;44.85
63339;BME280;47485;51.378;-1.342;2022-11-20T07:13:24;99328.63;;;5.31;42.94
63339;BME280;47485;51.378;-1.342;2022-11-20T07:15:51;99328.17;;;4.01;43.69
63339;BME280;47485;51.378;-1.342;2022-11-20T07:18:18;99324.82;;;6.45;41.75
63339;BME280;47485;51.378;-1.342;2022-11-20T07:20:45;99325.46;;;5.65;41.40
63339;BME280;47485;51.378;-1.342;2022-11-20T07:23:12;99327.44;;;4.91;40.19
63339;BME280;47485;51.378;-1.342;2022-11-20T07:25:39;99326.02;;;6.95;40.83
63339;BME280;47485;51.378;-1.342;2022-11-20T07:28:06;99323.10;;;4.58;43.58
63339;BME280;47485;51.378;-1.342;2022-11-20T07:30:32;99326.50;;;5.22;45.25
63339;BME280;47485;51.378;-1.342;2022-11-20T07:32:59;99315.61;;;4.99;45.10
63339;BME280;47485;51.378;-1.342;2022-11-20T07:35:26;99324.66;;;4.24;45.79
63339;BME280;47485;51.378;-1.342;2022-11-20T07:37:53;99330.09;;;3.72;46.61
63339;BME280;47485;51.378;-1.342;2022-11-20T07:40:20;99338.56;;;3.48;47.73
63339;BME280;47485;51.378;-1.342;2022-11-20T07:42:48;99344.51;;;2.87;48.01
63339;BME280;47485;51.378;-1.342;2022-11-20T07:45:15;99353.69;;;2.92;46.61
63339;BME280;47485;51.378;-1.342;2022-11-20T07:47:42;99354.63;;;3.24;47.42
63339;BME280;47485;51.378;-1.342;2022-11-20T07:50:09;99356.37;;;3.18;44.17
63339;BME280;47485;51.378;-1.342;2022-11-20T07:52:35;99373.33;;;3.80;47.09
63339;BME280;47485;51.378;-1.342;2022-11-20T07:55:03;99377.32;;;3.15;47.88
63339;BME280;47485;51.378;-1.342;2022-11-20T07:57:30;99377.65;;;2.22;48.57
63339;BME280;47485;51.378;-1.342;2022-11-20T07:59:56;99383.47;;;3.26;48.63
63339;BME280;47485;51.378;-1.342;2022-11-20T08:02:23;99383.16;;;2.67;49.22
63339;BME280;47485;51.378;-1.342;2022-11-20T08:04:50;99372.39;;;2.98;48.69
63339;BME280;47485;51.378;-1.342;2022-11-20T08:07:17;99369.59;;;3.64;47.41
63339;BME280;47485;51.378;-1.342;2022-11-20T08:09:44;99374.21;;;2.75;47.33
63339;BME280;47485;51.378;-1.342;2022-11-20T08:12:17;99380.28;;;1.61;49.78
63339;BME280;47485;51.378;-1.342;2022-11-20T08:14:45;99370.04;;;1.77;50.81
63339;BME280;47485;51.378;-1.342;2022-11-20T08:17:12;99365.78;;;1.82;50.13
63339;BME280;47485;51.378;-1.342;2022-11-20T08:19:39;99369.44;;;2.59;48.74
63339;BME280;47485;51.378;-1.342;2022-11-20T08:22:06;99371.98;;;4.17;46.57
63339;BME280;47485;51.378;-1.342;2022-11-20T08:24:33;99368.47;;;3.08;46.22
63339;BME280;47485;51.378;-1.342;2022-11-20T08:27:00;99380.22;;;2.83;48.03
63339;BME280;47485;51.378;-1.342;2022-11-20T08:29:27;99384.39;;;2.89;48.72
63339;BME280;47485;51.378;-1.342;2022-11-20T08:31:53;99380.39;;;3.65;45.85
63339;BME280;47485;51.378;-1.342;2022-11-20T08:34:20;99384.05;;;3.32;45.02
63339;BME280;47485;51.378;-1.342;2022-11-20T08:36:47;99382.80;;;5.32;44.82
63339;BME280;47485;51.378;-1.342;2022-11-20T08:39:15;99388.15;;;2.92;45.23
63339;BME280;47485;51.378;-1.342;2022-11-20T08:41:41;99396.40;;;3.69;45.37
63339;BME280;47485;51.378;-1.342;2022-11-20T08:44:08;99409.33;;;2.13;48.66
63339;BME280;47485;51.378;-1.342;2022-11-20T08:46:36;99423.73;;;2.77;49.39
63339;BME280;47485;51.378;-1.342;2022-11-20T08:49:04;99427.99;;;3.57;48.41
63339;BME280;47485;51.378;-1.342;2022-11-20T08:51:30;99426.32;;;3.09;49.41
63339;BME280;47485;51.378;-1.342;2022-11-20T08:53:57;99429.48;;;1.87;49.05
63339;BME280;47485;51.378;-1.342;2022-11-20T08:56:24;99431.24;;;3.00;48.32
63339;BME280;47485;51.378;-1.342;2022-11-20T08:58:51;99431.32;;;3.19;47.57
63339;BME280;47485;51.378;-1.342;2022-11-20T09:01:19;99434.97;;;5.11;45.80
63339;BME280;47485;51.378;-1.342;2022-11-20T09:03:47;99438.44;;;4.47;45.34
63339;BME280;47485;51.378;-1.342;2022-11-20T09:06:16;99436.95;;;3.27;44.97
63339;BME280;47485;51.378;-1.342;2022-11-20T09:08:43;99427.68;;;5.25;42.73
63339;BME280;47485;51.378;-1.342;2022-11-20T09:11:11;99430.15;;;5.21;40.94
63339;BME280;47485;51.378;-1.342;2022-11-20T09:13:38;99438.10;;;4.85;42.88
63339;BME280;47485;51.378;-1.342;2022-11-20T09:16:07;99436.78;;;5.09;41.75
63339;BME280;47485;51.378;-1.342;2022-11-20T09:18:35;99434.42;;;5.28;40.48
63339;BME280;47485;51.378;-1.342;2022-11-20T09:21:05;99434.61;;;5.84;40.61
63339;BME280;47485;51.378;-1.342;2022-11-20T09:23:35;99439.87;;;5.45;42.54
63339;BME280;47485;51.378;-1.342;2022-11-20T09:26:03;99446.91;;;4.36;42.97
63339;BME280;47485;51.378;-1.342;2022-11-20T09:28:31;99450.50;;;5.00;43.18
63339;BME280;47485;51.378;-1.342;2022-11-20T09:30:58;99448.52;;;5.51;42.33
63339;BME280;47485;51.378;-1.342;2022-11-20T09:33:25;99441.46;;;4.41;42.07
63339;BME280;47485;51.378;-1.342;2022-11-20T09:35:52;99436.09;;;6.07;40.37
63339;BME280;47485;51.378;-1.342;2022-11-20T09:38:18;99433.50;;;5.96;40.77
63339;BME280;47485;51.378;-1.342;2022-11-20T09:40:51;99434.81;;;5.27;41.46
63339;BME280;47485;51.378;-1.342;2022-11-20T09:43:32;99429.06;;;5.64;41.03
63339;BME280;47485;51.378;-1.342;2022-11-20T09:46:08;99430.42;;;7.09;40.21
63339;BME280;47485;51.378;-1.342;2022-11-20T09:48:51;99430.80;;;6.55;40.43
63339;BME280;47485;51.378;-1.342;2022-11-20T09:51:31;99434.32;;;5.26;40.50
63339;BME280;47485;51.378;-1.342;2022-11-20T09:54:13;99433.82;;;5.14;40.58
63339;BME280;47485;51.378;-1.342;2022-11-20T09:56:44;99434.58;;;5.13;40.88
63339;BME280;47485;51.378;-1.342;2022-11-20T09:59:24;99437.72;;;4.69;42.98
63339;BME280;47485;51.378;-1.342;2022-11-20T10:01:54;99436.37;;;5.31;42.39
63339;BME280;47485;51.378;-1.342;2022-11-20T10:04:22;99435.25;;;5.67;42.08
63339;BME280;47485;51.378;-1.342;2022-11-20T10:06:53;99439.24;;;4.34;41.91
63339;BME280;47485;51.378;-1.342;2022-11-20T10:09:27;99443.22;;;4.80;43.30
63339;BME280;47485;51.378;-1.342;2022-11-20T10:12:05;99440.32;;;4.73;43.75
63339;BME280;47485;51.378;-1.342;2022-11-20T10:14:48;99437.23;;;5.00;42.95
63339;BME280;47485;51.378;-1.342;2022-11-20T10:17:23;99440.31;;;5.70;42.39
63339;BME280;47485;51.378;-1.342;2022-11-20T10:20:09;99441.45;;;5.42;41.88
63339;BME280;47485;51.378;-1.342;2022-11-20T10:22:49;99442.32;;;4.84;43.36
63339;BME280;47485;51.378;-1.342;2022-11-20T10:25:22;99441.70;;;4.48;42.73
63339;BME280;47485;51.378;-1.342;2022-11-20T10:28:17;99450.82;;;4.45;44.82
63339;BME280;47485;51.378;-1.342;2022-11-20T10:30:55;99446.68;;;3.84;45.45
63339;BME280;47485;51.378;-1.342;2022-11-20T10:33:31;99445.16;;;3.78;45.20
63339;BME280;47485;51.378;-1.342;2022-11-20T10:36:06;99444.29;;;2.78;44.91
63339;BME280;47485;51.378;-1.342;2022-11-20T10:38:39;99443.13;;;4.14;45.09
63339;BME280;47485;51.378;-1.342;2022-11-20T10:41:07;99443.62;;;4.07;44.57
63339;BME280;47485;51.378;-1.342;2022-11-20T10:43:38;99444.15;;;3.23;46.20
63339;BME280;47485;51.378;-1.342;2022-11-20T10:46:15;99444.80;;;4.87;45.10
63339;BME280;47485;51.378;-1.342;2022-11-20T10:48:43;99444.16;;;4.03;44.14
63339;BME280;47485;51.378;-1.342;2022-11-20T10:51:18;99442.60;;;4.63;44.28
63339;BME280;47485;51.378;-1.342;2022-11-20T10:53:56;99441.35;;;3.88;44.37
63339;BME280;47485;51.378;-1.342;2022-11-20T10:56:29;99445.76;;;2.24;46.37
63339;BME280;47485;51.378;-1.342;2022-11-20T10:59:30;99444.70;;;3.70;44.95
63339;BME280;47485;51.378;-1.342;2022-11-20T11:02:00;99443.42;;;4.24;44.50
63339;BME280;47485;51.378;-1.342;2022-11-20T11:04:33;99440.70;;;5.07;45.04
63339;BME280;47485;51.378;-1.342;2022-11-20T11:07:08;99444.40;;;3.79;44.98
63339;BME280;47485;51.378;-1.342;2022-11-20T11:09:39;99439.85;;;4.27;43.71
63339;BME280;47485;51.378;-1.342;2022-11-20T11:12:08;99438.00;;;4.02;43.68
63339;BME280;47485;51.378;-1.342;2022-11-20T11:14:53;99437.35;;;4.44;44.40
63339;BME280;47485;51.378;-1.342;2022-11-20T11:17:23;99437.39;;;4.20;44.86
63339;BME280;47485;51.378;-1.342;2022-11-20T11:20:15;99436.09;;;2.63;44.47
63339;BME280;47485;51.378;-1.342;2022-11-20T11:22:44;99438.78;;;3.26;44.71
63339;BME280;47485;51.378;-1.342;2022-11-20T11:25:20;99438.05;;;4.17;43.74
63339;BME280;47485;51.378;-1.342;2022-11-20T11:27:49;99440.10;;;3.66;43.73
63339;BME280;47485;51.378;-1.342;2022-11-20T11:30:18;99438.55;;;4.91;42.50
63339;BME280;47485;51.378;-1.342;2022-11-20T11:32:45;99434.01;;;5.26;41.28
63339;BME280;47485;51.378;-1.342;2022-11-20T11:35:23;99438.26;;;5.13;41.82
63339;BME280;47485;51.378;-1.342;2022-11-20T11:37:51;99442.17;;;4.62;40.71
63339;BME280;47485;51.378;-1.342;2022-11-20T11:40:18;99440.34;;;5.03;40.47
63339;BME280;47485;51.378;-1.342;2022-11-20T11:42:52;99451.46;;;5.51;41.88
63339;BME280;47485;51.378;-1.342;2022-11-20T11:45:20;99455.26;;;4.23;42.62
63339;BME280;47485;51.378;-1.342;2022-11-20T11:47:48;99454.62;;;3.46;43.66
63339;BME280;47485;51.378;-1.342;2022-11-20T11:50:17;99451.26;;;3.27;42.53
63339;BME280;47485;51.378;-1.342;2022-11-20T11:52:51;99448.06;;;4.66;42.19
63339;BME280;47485;51.378;-1.342;2022-11-20T11:55:28;99444.95;;;4.44;41.40
63339;BME280;47485;51.378;-1.342;2022-11-20T11:58:06;99435.14;;;5.64;41.41
63339;BME280;47485;51.378;-1.342;2022-11-20T12:00:34;99433.23;;;5.36;39.66
63339;BME280;47485;51.378;-1.342;2022-11-20T12:03:08;99438.65;;;5.27;41.51
63339;BME280;47485;51.378;-1.342;2022-11-20T12:05:40;99438.54;;;5.81;40.68
63339;BME280;47485;51.378;-1.342;2022-11-20T12:08:14;99452.14;;;3.50;42.71
63339;BME280;47485;51.378;-1.342;2022-11-20T12:10:47;99455.69;;;4.46;43.01
63339;BME280;47485;51.378;-1.342;2022-11-20T12:13:26;99460.71;;;4.92;42.96
63339;BME280;47485;51.378;-1.342;2022-11-20T12:15:58;99460.04;;;5.09;42.53
63339;BME280;47485;51.378;-1.342;2022-11-20T12:18:25;99453.67;;;5.19;42.41
63339;BME280;47485;51.378;-1.342;2022-11-20T12:21:04;99447.84;;;3.29;43.16
63339;BME280;47485;51.378;-1.342;2022-11-20T12:23:41;99434.13;;;5.01;43.04
63339;BME280;47485;51.378;-1.342;2022-11-20T12:26:19;99430.14;;;3.82;43.19
63339;BME280;47485;51.378;-1.342;2022-11-20T12:28:57;99429.19;;;2.24;43.48
63339;BME280;47485;51.378;-1.342;2022-11-20T12:31:39;99426.11;;;4.61;43.26
63339;BME280;47485;51.378;-1.342;2022-11-20T12:34:23;99425.01;;;4.97;42.06
63339;BME280;47485;51.378;-1.342;2022-11-20T12:36:58;99432.74;;;4.16;43.00
63339;BME280;47485;51.378;-1.342;2022-11-20T12:39:34;99428.81;;;5.71;41.38
63339;BME280;47485;51.378;-1.342;2022-11-20T12:42:14;99434.03;;;5.30;40.75
63339;BME280;47485;51.378;-1.342;2022-11-20T12:44:57;99436.15;;;5.34;39.72
63339;BME280;47485;51.378;-1.342;2022-11-20T12:47:36;99439.19;;;5.80;38.40
63339;BME280;47485;51.378;-1.342;2022-11-20T12:50:11;99436.46;;;8.18;36.83
63339;BME280;47485;51.378;-1.342;2022-11-20T12:52:47;99438.02;;;5.49;39.06
63339;BME280;47485;51.378;-1.342;2022-11-20T12:55:23;99440.59;;;5.77;40.51
63339;BME280;47485;51.378;-1.342;2022-11-20T12:57:58;99440.82;;;4.72;41.95
63339;BME280;47485;51.378;-1.342;2022-11-20T13:00:31;99431.01;;;5.16;41.41
63339;BME280;47485;51.378;-1.342;2022-11-20T13:03:08;99429.07;;;5.77;40.17
63339;BME280;47485;51.378;-1.342;2022-11-20T13:05:46;99427.80;;;5.11;40.72
63339;BME280;47485;51.378;-1.342;2022-11-20T13:08:21;99422.67;;;6.16;40.30
63339;BME280;47485;51.378;-1.342;2022-11-20T13:10:55;99412.18;;;6.45;39.00
63339;BME280;47485;51.378;-1.342;2022-11-20T13:13:30;99411.24;;;6.63;38.34